createdAt,value
2018-08-04T00:00:18.422Z,24.20
2018-08-04T00:02:45.958Z,24.20
2018-08-04T00:05:13.487Z,24.10
2018-08-04T00:07:41.038Z,24.10
2018-08-04T00:10:14.071Z,24.00
2018-08-04T00:12:41.614Z,23.90
2018-08-04T00:15:09.170Z,23.90
2018-08-04T00:17:37.010Z,23.80
2018-08-04T00:20:04.747Z,23.80
2018-08-04T00:22:32.274Z,23.80
2018-08-04T00:24:59.766Z,23.80
2018-08-04T00:27:27.321Z,23.80
2018-08-04T00:29:54.942Z,23.70
2018-08-04T00:32:22.450Z,23.70
2018-08-04T00:34:49.963Z,23.80
2018-08-04T00:37:18.690Z,23.70
2018-08-04T00:39:47.413Z,23.70
2018-08-04T00:42:15.497Z,23.70
2018-08-04T00:44:44.193Z,23.60
2018-08-04T00:47:11.823Z,23.60
2018-08-04T00:49:39.354Z,23.50
2018-08-04T00:52:06.867Z,23.50
2018-08-04T00:54:34.447Z,23.50
2018-08-04T00:57:01.973Z,23.40
2018-08-04T00:59:29.497Z,23.40
2018-08-04T01:01:56.987Z,23.40
2018-08-04T01:04:24.513Z,23.40
2018-08-04T01:06:52.023Z,23.40
2018-08-04T01:09:19.526Z,23.30
2018-08-04T01:11:47.043Z,23.30
2018-08-04T01:14:14.546Z,23.20
2018-08-04T01:16:42.043Z,23.20
2018-08-04T01:19:09.578Z,23.20
2018-08-04T01:21:37.130Z,23.20
2018-08-04T01:24:04.664Z,23.10
2018-08-04T01:26:32.215Z,23.10
2018-08-04T01:28:59.782Z,23.10
2018-08-04T01:31:27.342Z,23.00
2018-08-04T01:33:54.908Z,23.00
2018-08-04T01:36:22.397Z,23.00
2018-08-04T01:38:49.962Z,23.00
2018-08-04T01:41:17.500Z,23.00
2018-08-04T01:43:45.079Z,23.00
2018-08-04T01:46:12.574Z,22.90
2018-08-04T01:48:40.091Z,22.90
2018-08-04T01:51:07.618Z,22.90
2018-08-04T01:53:35.126Z,22.90
2018-08-04T01:56:02.657Z,22.80
2018-08-04T01:58:30.151Z,22.80
2018-08-04T02:00:57.672Z,22.80
2018-08-04T02:03:25.190Z,22.80
2018-08-04T02:05:52.702Z,22.80
2018-08-04T02:08:20.294Z,22.80
2018-08-04T02:10:47.803Z,22.70
2018-08-04T02:13:15.550Z,22.70
2018-08-04T02:15:43.120Z,22.70
2018-08-04T02:18:10.626Z,22.60
2018-08-04T02:20:38.131Z,22.60
2018-08-04T02:23:05.719Z,22.60
2018-08-04T02:25:33.387Z,22.60
2018-08-04T02:28:00.897Z,22.60
2018-08-04T02:30:28.483Z,22.60
2018-08-04T02:32:56.015Z,22.60
2018-08-04T02:35:23.531Z,22.60
2018-08-04T02:37:51.042Z,22.60
2018-08-04T02:40:18.599Z,22.50
2018-08-04T02:42:46.087Z,22.60
2018-08-04T02:45:13.622Z,22.50
2018-08-04T02:47:41.119Z,22.50
2018-08-04T02:50:08.922Z,22.50
2018-08-04T02:52:36.407Z,22.50
2018-08-04T02:55:04.103Z,22.50
2018-08-04T02:57:31.590Z,22.50
2018-08-04T02:59:59.132Z,22.50
2018-08-04T03:02:26.641Z,22.50
2018-08-04T03:04:54.175Z,22.50
2018-08-04T03:07:21.832Z,22.50
2018-08-04T03:09:49.368Z,22.50
2018-08-04T03:12:16.859Z,22.50
2018-08-04T03:14:44.369Z,22.50
2018-08-04T03:17:11.854Z,22.50
2018-08-04T03:19:39.343Z,22.50
2018-08-04T03:22:06.938Z,22.50
2018-08-04T03:24:34.431Z,22.50
2018-08-04T03:27:01.979Z,22.50
2018-08-04T03:29:29.494Z,22.50
2018-08-04T03:31:57.063Z,22.50
2018-08-04T03:34:24.562Z,22.50
2018-08-04T03:36:52.107Z,22.50
2018-08-04T03:39:19.598Z,22.50
2018-08-04T03:41:47.143Z,22.50
2018-08-04T03:44:14.715Z,22.50
2018-08-04T03:46:42.211Z,22.50
2018-08-04T03:49:09.759Z,22.50
2018-08-04T03:51:37.301Z,22.50
2018-08-04T03:54:04.798Z,22.50
2018-08-04T03:56:32.326Z,22.50
2018-08-04T03:58:59.826Z,22.50
2018-08-04T04:01:27.658Z,22.50
2018-08-04T04:03:55.187Z,22.50
2018-08-04T04:06:22.718Z,22.50
2018-08-04T04:08:50.190Z,22.50
2018-08-04T04:11:17.698Z,22.40
2018-08-04T04:13:45.214Z,22.40
2018-08-04T04:16:12.722Z,22.40
2018-08-04T04:18:40.256Z,22.40
2018-08-04T04:21:07.796Z,22.40
2018-08-04T04:23:35.294Z,22.40
2018-08-04T04:26:02.855Z,22.40
2018-08-04T04:28:30.366Z,22.30
2018-08-04T04:30:58.046Z,22.30
2018-08-04T04:33:25.610Z,22.30
2018-08-04T04:35:53.150Z,22.30
2018-08-04T04:38:20.665Z,22.30
2018-08-04T04:40:48.221Z,22.30
2018-08-04T04:43:15.986Z,22.30
2018-08-04T04:48:17.827Z,22.30
2018-08-04T04:50:45.362Z,22.30
2018-08-04T04:53:12.904Z,22.30
2018-08-04T04:55:40.392Z,22.20
2018-08-04T04:58:07.926Z,22.30
2018-08-04T05:00:35.458Z,22.20
2018-08-04T05:03:03.211Z,22.30
2018-08-04T05:05:30.726Z,22.30
2018-08-04T05:07:58.241Z,22.20
2018-08-04T05:10:25.911Z,22.30
2018-08-04T05:12:53.430Z,22.30
2018-08-04T05:15:20.966Z,22.30
2018-08-04T05:17:48.459Z,22.30
2018-08-04T05:20:15.998Z,22.30
2018-08-04T05:22:43.526Z,22.40
2018-08-04T05:25:11.029Z,22.40
2018-08-04T05:27:38.570Z,22.50
2018-08-04T05:30:06.422Z,22.50
2018-08-04T05:32:33.915Z,22.60
2018-08-04T05:35:01.506Z,22.70
2018-08-04T05:37:29.081Z,22.70
2018-08-04T05:39:56.583Z,22.80
2018-08-04T05:42:24.115Z,22.80
2018-08-04T05:44:51.703Z,22.90
2018-08-04T05:47:19.190Z,22.90
2018-08-04T05:49:46.706Z,22.90
2018-08-04T05:52:14.191Z,23.00
2018-08-04T05:54:41.753Z,23.10
2018-08-04T05:57:09.286Z,23.20
2018-08-04T05:59:36.802Z,23.30
2018-08-04T06:02:04.359Z,23.30
2018-08-04T06:04:31.930Z,23.40
2018-08-04T06:06:59.482Z,23.40
2018-08-04T06:09:26.994Z,23.40
2018-08-04T06:11:54.518Z,23.50
2018-08-04T06:14:22.340Z,23.50
2018-08-04T06:16:49.859Z,23.50
2018-08-04T06:19:17.375Z,23.50
2018-08-04T06:21:44.890Z,23.60
2018-08-04T06:24:12.392Z,23.70
2018-08-04T06:26:39.932Z,23.70
2018-08-04T06:29:07.426Z,23.80
2018-08-04T06:31:34.946Z,23.80
2018-08-04T06:34:02.486Z,23.80
2018-08-04T06:36:29.996Z,23.90
2018-08-04T06:38:57.518Z,23.90
2018-08-04T06:41:25.019Z,23.90
2018-08-04T06:43:52.632Z,24.00
2018-08-04T06:46:20.206Z,24.00
2018-08-04T06:48:47.718Z,24.00
2018-08-04T06:51:15.297Z,24.10
2018-08-04T06:53:42.884Z,24.10
2018-08-04T06:56:10.667Z,24.20
2018-08-04T06:58:38.387Z,24.30
2018-08-04T07:01:06.099Z,24.40
2018-08-04T07:03:33.582Z,24.50
2018-08-04T07:06:01.127Z,24.60
2018-08-04T07:08:28.606Z,24.60
2018-08-04T07:10:56.098Z,24.60
2018-08-04T07:13:23.616Z,24.80
2018-08-04T07:15:51.219Z,24.80
2018-08-04T07:18:18.742Z,24.90
2018-08-04T07:20:46.241Z,25.00
2018-08-04T07:23:13.786Z,25.10
2018-08-04T07:25:41.306Z,25.10
2018-08-04T07:28:08.834Z,25.20
2018-08-04T07:30:36.331Z,25.10
2018-08-04T07:33:03.866Z,25.20
2018-08-04T07:35:31.386Z,25.20
2018-08-04T07:37:58.901Z,25.20
2018-08-04T07:40:26.461Z,25.30
2018-08-04T07:42:53.998Z,25.40
2018-08-04T07:45:21.505Z,25.40
2018-08-04T07:47:49.026Z,25.50
2018-08-04T07:50:16.634Z,25.50
2018-08-04T07:52:44.154Z,25.60
2018-08-04T07:55:11.675Z,25.70
2018-08-04T07:57:39.335Z,25.70
2018-08-04T08:00:07.730Z,25.80
2018-08-04T08:02:35.318Z,25.80
2018-08-04T08:05:02.952Z,25.90
2018-08-04T08:07:30.455Z,25.90
2018-08-04T08:09:57.971Z,25.90
2018-08-04T08:12:25.482Z,25.90
2018-08-04T08:14:53.026Z,26.00
2018-08-04T08:17:20.663Z,26.00
2018-08-04T08:19:48.147Z,26.00
2018-08-04T08:22:15.723Z,26.00
2018-08-04T08:24:43.275Z,26.00
2018-08-04T08:27:10.839Z,26.00
2018-08-04T08:29:38.370Z,26.10
2018-08-04T08:32:06.018Z,26.10
2018-08-04T08:34:33.566Z,26.20
2018-08-04T08:37:01.264Z,26.20
2018-08-04T08:39:28.774Z,26.30
2018-08-04T08:41:56.330Z,26.30
2018-08-04T08:44:23.980Z,26.40
2018-08-04T08:46:51.613Z,26.50
2018-08-04T08:49:19.155Z,26.60
2018-08-04T08:51:46.713Z,26.70
2018-08-04T08:54:14.319Z,26.80
2018-08-04T08:56:41.795Z,26.80
2018-08-04T08:59:09.315Z,26.90
2018-08-04T09:01:36.838Z,26.90
2018-08-04T09:04:04.455Z,27.00
2018-08-04T09:06:31.978Z,27.00
2018-08-04T09:08:59.478Z,27.10
2018-08-04T09:11:27.007Z,27.10
2018-08-04T09:13:54.512Z,27.20
2018-08-04T09:16:22.038Z,27.30
2018-08-04T09:18:49.534Z,27.40
2018-08-04T09:21:17.070Z,27.40
2018-08-04T09:23:44.617Z,27.50
2018-08-04T09:26:12.142Z,27.60
2018-08-04T09:28:39.641Z,27.60
2018-08-04T09:31:07.202Z,27.70
2018-08-04T09:33:34.746Z,27.80
2018-08-04T09:36:02.327Z,27.90
2018-08-04T09:38:29.857Z,27.90
2018-08-04T09:40:57.359Z,28.00
2018-08-04T09:43:24.915Z,28.10
2018-08-04T09:45:52.457Z,28.10
2018-08-04T09:48:20.002Z,28.20
2018-08-04T09:50:47.494Z,28.40
2018-08-04T09:53:14.999Z,28.50
2018-08-04T09:55:42.519Z,28.60
2018-08-04T09:58:10.019Z,28.60
2018-08-04T10:00:43.127Z,28.60
2018-08-04T10:03:10.670Z,28.70
2018-08-04T10:05:38.149Z,28.80
2018-08-04T10:08:05.712Z,28.90
2018-08-04T10:10:33.262Z,28.90
2018-08-04T10:13:00.793Z,29.00
2018-08-04T10:15:28.327Z,29.00
2018-08-04T10:17:55.867Z,29.10
2018-08-04T10:20:23.457Z,29.20
2018-08-04T10:22:51.446Z,29.20
2018-08-04T10:25:19.093Z,29.30
2018-08-04T10:27:46.627Z,29.40
2018-08-04T10:30:14.158Z,29.50
2018-08-04T10:32:41.838Z,29.60
2018-08-04T10:35:09.221Z,29.70
2018-08-04T10:37:36.742Z,29.80
2018-08-04T10:40:04.279Z,29.90
2018-08-04T10:42:31.810Z,29.90
2018-08-04T10:44:59.338Z,30.00
2018-08-04T10:47:26.855Z,30.10
2018-08-04T10:49:54.362Z,30.20
2018-08-04T10:52:21.927Z,30.30
2018-08-04T10:54:49.501Z,30.30
2018-08-04T10:57:17.139Z,30.30
2018-08-04T10:59:44.679Z,30.40
2018-08-04T11:02:12.234Z,30.50
2018-08-04T11:04:39.733Z,30.50
2018-08-04T11:07:07.253Z,30.50
2018-08-04T11:09:34.754Z,30.60
2018-08-04T11:12:02.289Z,30.80
2018-08-04T11:14:29.773Z,30.80
2018-08-04T11:16:57.311Z,30.90
2018-08-04T11:19:24.928Z,31.00
2018-08-04T11:21:52.470Z,31.00
2018-08-04T11:24:19.985Z,31.10
2018-08-04T11:26:47.570Z,31.20
2018-08-04T11:29:15.073Z,31.30
2018-08-04T11:31:42.570Z,31.40
2018-08-04T11:34:10.106Z,31.40
2018-08-04T11:36:37.608Z,31.50
2018-08-04T11:39:07.451Z,31.50
2018-08-04T11:41:35.216Z,31.50
2018-08-04T11:44:02.822Z,31.60
2018-08-04T11:46:30.406Z,31.70
2018-08-04T11:48:57.900Z,31.80
2018-08-04T11:51:25.471Z,31.80
2018-08-04T11:53:53.363Z,31.90
2018-08-04T11:56:20.950Z,31.90
2018-08-04T11:58:49.167Z,31.90
2018-08-04T12:01:18.116Z,32.00
2018-08-04T12:03:47.583Z,32.00
2018-08-04T12:06:17.803Z,32.10
2018-08-04T12:08:48.497Z,32.20
2018-08-04T12:11:18.391Z,32.30
2018-08-04T12:13:48.012Z,32.40
2018-08-04T12:16:18.389Z,32.40
2018-08-04T12:18:50.521Z,32.50
2018-08-04T12:21:21.052Z,32.50
2018-08-04T12:23:51.726Z,32.60
2018-08-04T12:26:21.947Z,32.60
2018-08-04T12:28:51.922Z,32.60
2018-08-04T12:31:20.760Z,32.70
2018-08-04T12:33:50.652Z,32.80
2018-08-04T12:36:21.410Z,32.80
2018-08-04T12:38:51.227Z,32.90
2018-08-04T12:41:20.835Z,33.00
2018-08-04T12:43:50.518Z,33.00
2018-08-04T12:46:18.614Z,33.00
2018-08-04T12:48:46.517Z,33.00
2018-08-04T12:51:14.088Z,33.00
2018-08-04T12:53:41.595Z,33.00
2018-08-04T12:56:09.174Z,33.00
2018-08-04T12:58:36.680Z,33.00
2018-08-04T13:01:04.235Z,33.00
2018-08-04T13:03:31.794Z,33.00
2018-08-04T13:05:59.326Z,33.00
2018-08-04T13:08:26.878Z,33.00
2018-08-04T13:10:54.370Z,33.00
2018-08-04T13:13:21.891Z,33.00
2018-08-04T13:15:49.448Z,33.00
2018-08-04T13:18:16.999Z,33.10
2018-08-04T13:20:44.512Z,33.20
2018-08-04T13:23:12.055Z,33.30
2018-08-04T13:25:39.673Z,33.40
2018-08-04T13:28:07.231Z,33.40
2018-08-04T13:30:34.783Z,33.40
2018-08-04T13:33:02.280Z,33.40
2018-08-04T13:35:29.811Z,33.50
2018-08-04T13:37:57.322Z,33.50
2018-08-04T13:40:24.874Z,33.50
2018-08-04T13:42:52.411Z,33.50
2018-08-04T13:45:19.922Z,33.50
2018-08-04T13:47:47.450Z,33.60
2018-08-04T13:50:15.108Z,33.60
2018-08-04T13:52:42.579Z,33.50
2018-08-04T13:55:10.100Z,33.60
2018-08-04T13:57:37.630Z,33.50
2018-08-04T14:00:05.647Z,33.60
2018-08-04T14:02:33.213Z,33.60
2018-08-04T14:05:00.775Z,33.60
2018-08-04T14:07:28.290Z,33.60
2018-08-04T14:09:55.774Z,33.60
2018-08-04T14:12:23.357Z,33.60
2018-08-04T14:14:50.859Z,33.60
2018-08-04T14:17:18.404Z,33.70
2018-08-04T14:19:45.959Z,33.70
2018-08-04T14:22:13.494Z,33.60
2018-08-04T14:24:41.014Z,33.60
2018-08-04T14:27:08.490Z,33.60
2018-08-04T14:29:36.017Z,33.60
2018-08-04T14:32:03.584Z,33.60
2018-08-04T14:34:31.099Z,33.60
2018-08-04T14:36:58.585Z,33.60
2018-08-04T14:39:26.097Z,33.60
2018-08-04T14:41:53.619Z,33.60
2018-08-04T14:44:27.730Z,33.50
2018-08-04T14:46:55.338Z,33.50
2018-08-04T14:49:22.834Z,33.60
2018-08-04T14:51:50.407Z,33.50
2018-08-04T14:54:17.890Z,33.50
2018-08-04T14:56:45.414Z,33.50
2018-08-04T14:59:12.905Z,33.50
2018-08-04T15:01:40.427Z,33.50
2018-08-04T15:04:07.923Z,33.50
2018-08-04T15:06:35.450Z,33.40
2018-08-04T15:09:03.674Z,33.40
2018-08-04T15:11:31.162Z,33.40
2018-08-04T15:13:58.673Z,33.40
2018-08-04T15:16:26.186Z,33.40
2018-08-04T15:18:53.690Z,33.40
2018-08-04T15:21:21.158Z,33.40
2018-08-04T15:23:48.660Z,33.40
2018-08-04T15:26:16.139Z,33.40
2018-08-04T15:28:43.665Z,33.30
2018-08-04T15:31:11.158Z,33.30
2018-08-04T15:33:38.700Z,33.20
2018-08-04T15:36:06.178Z,33.20
2018-08-04T15:38:33.674Z,33.20
2018-08-04T15:41:01.143Z,33.10
2018-08-04T15:43:28.675Z,33.00
2018-08-04T15:45:56.202Z,33.00
2018-08-04T15:48:23.713Z,33.00
2018-08-04T15:50:51.223Z,33.00
2018-08-04T15:53:18.869Z,32.90
2018-08-04T15:55:46.498Z,32.90
2018-08-04T15:58:13.982Z,32.80
2018-08-04T16:00:41.463Z,32.80
2018-08-04T16:03:08.955Z,32.80
2018-08-04T16:05:36.462Z,32.80
2018-08-04T16:08:03.942Z,32.70
2018-08-04T16:10:31.467Z,32.70
2018-08-04T16:12:58.976Z,32.70
2018-08-04T16:15:26.455Z,32.60
2018-08-04T16:17:54.003Z,32.50
2018-08-04T16:20:21.470Z,32.50
2018-08-04T16:22:49.010Z,32.50
2018-08-04T16:25:16.512Z,32.40
2018-08-04T16:27:44.019Z,32.40
2018-08-04T16:30:11.539Z,32.40
2018-08-04T16:32:39.813Z,32.30
2018-08-04T16:35:08.227Z,32.20
2018-08-04T16:37:35.866Z,32.20
2018-08-04T16:40:04.179Z,32.10
2018-08-04T16:42:31.910Z,32.10
2018-08-04T16:44:59.707Z,32.20
2018-08-04T16:47:27.218Z,32.20
2018-08-04T16:49:54.691Z,32.20
2018-08-04T16:52:22.213Z,32.20
2018-08-04T16:54:49.738Z,32.20
2018-08-04T16:57:17.266Z,32.10
2018-08-04T16:59:45.071Z,32.10
2018-08-04T17:02:12.598Z,32.10
2018-08-04T17:04:40.111Z,32.00
2018-08-04T17:07:07.634Z,32.00
2018-08-04T17:09:35.118Z,32.00
2018-08-04T17:12:02.655Z,32.00
2018-08-04T17:14:30.163Z,32.00
2018-08-04T17:16:57.640Z,32.00
2018-08-04T17:19:25.155Z,31.90
2018-08-04T17:21:52.827Z,31.80
2018-08-04T17:24:20.334Z,31.70
2018-08-04T17:26:47.803Z,31.70
2018-08-04T17:29:15.327Z,31.50
2018-08-04T17:31:42.851Z,31.50
2018-08-04T17:34:10.331Z,31.40
2018-08-04T17:36:37.824Z,31.40
2018-08-04T17:39:07.410Z,31.30
2018-08-04T17:41:34.935Z,31.20
2018-08-04T17:44:02.452Z,31.20
2018-08-04T17:46:29.947Z,31.10
2018-08-04T17:48:57.438Z,31.10
2018-08-04T17:51:25.037Z,31.00
2018-08-04T17:53:52.691Z,30.90
2018-08-04T17:56:20.229Z,30.80
2018-08-04T17:58:47.814Z,30.80
2018-08-04T18:01:15.334Z,30.70
2018-08-04T18:03:42.832Z,30.60
2018-08-04T18:06:10.318Z,30.50
2018-08-04T18:08:37.828Z,30.50
2018-08-04T18:11:05.374Z,30.50
2018-08-04T18:13:32.899Z,30.40
2018-08-04T18:16:00.467Z,30.40
2018-08-04T18:18:27.939Z,30.30
2018-08-04T18:20:55.446Z,30.20
2018-08-04T18:23:22.965Z,30.10
2018-08-04T18:25:50.439Z,30.10
2018-08-04T18:28:17.939Z,30.00
2018-08-04T18:30:45.434Z,30.00
2018-08-04T18:33:12.955Z,29.90
2018-08-04T18:35:40.468Z,29.90
2018-08-04T18:38:07.970Z,29.80
2018-08-04T18:40:35.514Z,29.70
2018-08-04T18:43:03.070Z,29.70
2018-08-04T18:45:30.592Z,29.60
2018-08-04T18:47:58.114Z,29.60
2018-08-04T18:50:25.663Z,29.50
2018-08-04T18:52:53.184Z,29.50
2018-08-04T18:55:20.783Z,29.40
2018-08-04T18:57:48.339Z,29.30
2018-08-04T19:00:15.887Z,29.30
2018-08-04T19:02:43.435Z,29.20
2018-08-04T19:05:10.940Z,29.10
2018-08-04T19:07:38.489Z,29.10
2018-08-04T19:10:06.008Z,29.00
2018-08-04T19:12:33.523Z,29.00
2018-08-04T19:15:01.015Z,28.90
2018-08-04T19:17:28.543Z,28.90
2018-08-04T19:19:56.040Z,28.80
2018-08-04T19:22:23.550Z,28.80
2018-08-04T19:24:51.127Z,28.80
2018-08-04T19:27:18.798Z,28.80
2018-08-04T19:29:46.339Z,28.70
2018-08-04T19:32:13.866Z,28.70
2018-08-04T19:34:41.397Z,28.70
2018-08-04T19:37:08.907Z,28.70
2018-08-04T19:39:36.454Z,28.70
2018-08-04T19:42:03.991Z,28.70
2018-08-04T19:44:31.540Z,28.60
2018-08-04T19:46:59.054Z,28.60
2018-08-04T19:49:26.556Z,28.50
2018-08-04T19:51:54.091Z,28.50
2018-08-04T19:54:21.622Z,28.40
2018-08-04T19:56:49.240Z,28.40
2018-08-04T19:59:16.747Z,28.30
2018-08-04T20:01:44.288Z,28.30
2018-08-04T20:04:11.857Z,28.20
2018-08-04T20:06:39.379Z,28.10
2018-08-04T20:09:08.307Z,28.10
2018-08-04T20:11:35.906Z,28.10
2018-08-04T20:14:03.487Z,28.00
2018-08-04T20:16:31.194Z,28.00
2018-08-04T20:18:58.732Z,27.90
2018-08-04T20:21:26.267Z,27.90
2018-08-04T20:23:53.795Z,27.80
2018-08-04T20:26:21.776Z,27.90
2018-08-04T20:28:49.294Z,27.80
2018-08-04T20:31:16.843Z,27.80
2018-08-04T20:33:44.339Z,27.70
2018-08-04T20:36:11.903Z,27.60
2018-08-04T20:38:39.435Z,27.60
2018-08-04T20:41:07.016Z,27.50
2018-08-04T20:43:34.824Z,27.50
2018-08-04T20:46:02.568Z,27.40
2018-08-04T20:48:30.156Z,27.40
2018-08-04T20:50:57.658Z,27.30
2018-08-04T20:53:25.194Z,27.30
2018-08-04T20:55:52.774Z,27.30
2018-08-04T20:58:20.341Z,27.20
2018-08-04T21:00:59.323Z,27.20
2018-08-04T21:03:26.815Z,27.20
2018-08-04T21:05:54.371Z,27.10
2018-08-04T21:08:22.803Z,27.10
2018-08-04T21:10:50.343Z,27.00
2018-08-04T21:15:52.195Z,26.90
2018-08-04T21:18:19.702Z,26.90
2018-08-04T21:20:47.397Z,26.80
2018-08-04T21:23:14.943Z,26.80
2018-08-04T21:25:42.471Z,26.70
2018-08-04T21:28:09.999Z,26.70
2018-08-04T21:30:37.510Z,26.60
2018-08-04T21:33:05.115Z,26.60
2018-08-04T21:35:32.610Z,26.50
2018-08-04T21:38:00.192Z,26.50
2018-08-04T21:40:27.688Z,26.40
2018-08-04T21:42:55.236Z,26.40
2018-08-04T21:45:22.758Z,26.40
2018-08-04T21:47:50.364Z,26.30
2018-08-04T21:50:17.876Z,26.30
2018-08-04T21:52:45.407Z,26.20
2018-08-04T21:55:12.953Z,26.20
2018-08-04T21:57:40.483Z,26.10
2018-08-04T22:00:10.491Z,26.00
2018-08-04T22:02:43.116Z,26.00
2018-08-04T22:05:10.663Z,26.00
2018-08-04T22:07:50.241Z,25.90
2018-08-04T22:10:17.796Z,25.90
2018-08-04T22:12:45.337Z,25.90
2018-08-04T22:15:14.083Z,25.80
2018-08-04T22:17:41.639Z,25.80
2018-08-04T22:20:10.915Z,25.70
2018-08-04T22:22:39.023Z,25.70
2018-08-04T22:25:07.887Z,25.70
2018-08-04T22:27:35.696Z,25.60
2018-08-04T22:30:03.519Z,25.60
2018-08-04T22:32:31.063Z,25.50
2018-08-04T22:34:58.627Z,25.40
2018-08-04T22:37:26.159Z,25.40
2018-08-04T22:39:53.655Z,25.30
2018-08-04T22:42:21.210Z,25.20
2018-08-04T22:46:04.669Z,25.10
2018-08-04T22:48:32.370Z,25.10
2018-08-04T22:51:00.095Z,25.00
2018-08-04T22:53:27.682Z,24.90
2018-08-04T22:55:55.203Z,24.80
2018-08-04T22:58:22.734Z,24.70
2018-08-04T23:00:50.305Z,24.70
2018-08-04T23:03:17.873Z,24.60
2018-08-04T23:05:45.426Z,24.60
2018-08-04T23:08:13.475Z,24.60
2018-08-04T23:10:41.340Z,24.50
2018-08-04T23:13:09.515Z,24.50
2018-08-04T23:15:37.095Z,24.50
2018-08-04T23:18:04.715Z,24.50
2018-08-04T23:20:32.215Z,24.40
2018-08-04T23:23:00.066Z,24.30
2018-08-04T23:25:27.635Z,24.30
2018-08-04T23:27:55.158Z,24.20
2018-08-04T23:30:22.703Z,24.20
2018-08-04T23:32:51.215Z,24.10
2018-08-04T23:35:19.011Z,24.10
2018-08-04T23:37:46.791Z,24.10
2018-08-04T23:40:14.343Z,24.10
2018-08-04T23:42:41.933Z,24.00
2018-08-04T23:45:09.468Z,24.00
2018-08-04T23:47:36.970Z,23.90
2018-08-04T23:50:04.509Z,23.90
2018-08-04T23:52:32.103Z,23.90
2018-08-04T23:54:59.683Z,23.80
2018-08-04T23:57:27.399Z,23.80
2018-08-04T23:59:54.909Z,23.80
